Time;durP1;ratioP1;P1;durP2;ratioP2;P2;SDS_P1;SDS_P2;PMS_P1;PMS_P2;Temp;Humidity;BMP_temperature;BMP_pressure;BME280_temperature;BME280_humidity;BME280_pressure;Samples;Min_cycle;Max_cycle;Signal;HPM_P1;HPM_P2
2022/12/30 00:01:24;;;;;;;23.73;4.18;;;6.00;99.90;;;;;;5013597;28;20457;-84
2022/12/30 00:03:50;;;;;;;27.80;5.40;;;6.00;99.90;;;;;;5013906;28;20107;-84
2022/12/30 00:06:18;;;;;;;30.50;4.03;;;6.00;99.90;;;;;;5013794;28;20477;-85
2022/12/30 00:08:46;;;;;;;31.30;3.75;;;5.90;99.90;;;;;;5013283;28;20128;-85
2022/12/30 00:11:17;;;;;;;29.55;6.10;;;5.90;99.90;;;;;;5014086;28;20049;-85
2022/12/30 00:33:25;;;;;;;30.48;4.75;;;5.80;99.90;;;;;;5013140;28;20054;-84
2022/12/30 00:35:51;;;;;;;25.90;3.53;;;5.80;99.90;;;;;;5012985;28;20061;-84
2022/12/30 00:38:16;;;;;;;24.55;4.05;;;5.80;99.90;;;;;;5012870;28;20042;-85
2022/12/30 00:43:07;;;;;;;26.80;3.92;;;5.90;99.90;;;;;;5013153;28;20049;-84
2022/12/30 00:43:28;;;;;;;29.08;4.10;;;5.80;99.90;;;;;;5014132;28;20046;-84
2022/12/30 00:45:53;;;;;;;28.65;3.72;;;5.80;99.90;;;;;;5014169;28;20049;-85
2022/12/30 00:56:34;;;;;;;22.55;4.57;;;5.80;99.90;;;;;;5012822;28;20059;-84
2022/12/30 00:58:59;;;;;;;26.25;4.57;;;5.80;99.90;;;;;;5012396;28;20052;-84
2022/12/30 01:01:25;;;;;;;32.05;4.53;;;5.80;99.90;;;;;;5012591;28;20034;-84
2022/12/30 01:03:51;;;;;;;38.05;5.65;;;5.90;99.90;;;;;;5012603;28;20092;-84
2022/12/30 01:06:16;;;;;;;27.73;4.50;;;5.70;99.90;;;;;;5012627;28;20074;-84
2022/12/30 01:08:42;;;;;;;25.85;4.20;;;5.70;99.90;;;;;;5012608;28;20099;-84
2022/12/30 01:11:09;;;;;;;24.25;5.55;;;5.70;99.90;;;;;;5012830;28;20034;-84
2022/12/30 01:13:35;;;;;;;34.20;4.40;;;5.60;99.90;;;;;;5012375;28;20444;-84
2022/12/30 01:16:13;;;;;;;25.33;4.30;;;5.80;99.90;;;;;;5013672;28;20050;-84
2022/12/30 01:18:39;;;;;;;27.10;3.42;;;5.60;99.90;;;;;;5012564;28;20058;-84
2022/12/30 01:21:06;;;;;;;38.38;4.45;;;5.80;99.90;;;;;;5013708;28;20128;-84
2022/12/30 01:23:32;;;;;;;26.33;5.47;;;5.70;99.90;;;;;;5012381;28;20050;-84
2022/12/30 01:26:03;;;;;;;28.80;4.10;;;5.60;99.90;;;;;;5012574;28;20394;-84
2022/12/30 01:28:34;;;;;;;36.85;3.88;;;5.60;99.90;;;;;;5012240;28;20056;-84
2022/12/30 01:31:00;;;;;;;23.60;4.00;;;5.70;99.90;;;;;;5012272;28;20053;-85
2022/12/30 01:33:26;;;;;;;35.88;5.80;;;5.60;99.90;;;;;;5012851;28;20053;-84
2022/12/30 01:35:52;;;;;;;31.88;3.60;;;5.60;99.90;;;;;;5012187;28;20108;-84
2022/12/30 01:38:18;;;;;;;33.30;4.00;;;5.50;99.90;;;;;;5012196;28;20486;-85
2022/12/30 01:40:45;;;;;;;35.47;5.10;;;5.50;99.90;;;;;;5012443;28;20049;-85
2022/12/30 01:43:13;;;;;;;29.90;6.47;;;5.60;99.90;;;;;;5012175;28;20053;-84
2022/12/30 01:45:40;;;;;;;41.55;5.13;;;5.50;99.90;;;;;;5012205;28;20057;-84
2022/12/30 01:48:27;;;;;;;27.27;4.82;;;5.60;99.90;;;;;;5012306;28;20490;-84
2022/12/30 01:51:10;;;;;;;31.23;4.78;;;5.50;99.90;;;;;;5012054;28;20050;-85
2022/12/30 01:53:41;;;;;;;25.48;5.72;;;5.60;99.90;;;;;;5012159;28;20149;-84
2022/12/30 01:56:17;;;;;;;27.95;4.95;;;5.50;99.90;;;;;;5012103;28;20045;-84
2022/12/30 01:58:54;;;;;;;24.17;5.25;;;5.60;99.90;;;;;;5012479;28;20069;-84
2022/12/30 02:01:20;;;;;;;27.00;4.32;;;5.50;99.90;;;;;;5012236;28;20156;-84
2022/12/30 02:03:57;;;;;;;27.85;5.15;;;5.60;99.90;;;;;;5011990;28;20125;-84
2022/12/30 02:06:32;;;;;;;30.88;4.25;;;5.50;99.90;;;;;;5012404;28;20366;-84
2022/12/30 02:08:58;;;;;;;37.65;4.35;;;5.50;99.90;;;;;;5012239;28;20088;-84
2022/12/30 02:11:24;;;;;;;27.98;5.45;;;5.50;99.90;;;;;;5015436;28;20077;-84
2022/12/30 02:13:50;;;;;;;24.85;4.47;;;5.40;99.90;;;;;;5015525;28;20046;-84
2022/12/30 02:16:54;;;;;;;22.10;2.90;;;5.40;99.90;;;;;;5015489;28;20045;-84
2022/12/30 02:19:41;;;;;;;27.08;4.03;;;5.40;99.90;;;;;;5015544;28;20049;-84
2022/12/30 02:22:20;;;;;;;27.98;4.28;;;5.40;99.90;;;;;;5015645;28;20056;-84
2022/12/30 02:25:24;;;;;;;20.02;4.10;;;5.20;99.90;;;;;;5015600;28;20493;-84
2022/12/30 02:28:08;;;;;;;27.33;3.75;;;5.30;99.90;;;;;;5015428;28;20050;-84
2022/12/30 02:30:52;;;;;;;21.48;3.28;;;5.20;99.90;;;;;;5015178;28;20512;-84
2022/12/30 02:33:35;;;;;;;28.33;4.38;;;5.10;99.90;;;;;;5015306;28;20096;-84
2022/12/30 02:36:07;;;;;;;;;;;5.10;99.90;;;;;;5015485;28;20486;-84
2022/12/30 02:38:57;;;;;;;22.70;2.80;;;5.20;99.90;;;;;;5015470;28;19929;-84
2022/12/30 02:44:37;;;;;;;20.10;3.08;;;5.10;99.90;;;;;;5015119;28;20053;-84
2022/12/30 02:47:22;;;;;;;24.27;3.15;;;5.10;99.90;;;;;;5015050;28;20060;-84
2022/12/30 02:52:40;;;;;;;37.28;5.45;;;5.20;99.90;;;;;;5014953;28;20136;-84
2022/12/30 02:55:07;;;;;;;30.30;4.47;;;5.00;99.90;;;;;;5014894;28;20061;-84
2022/12/30 02:57:35;;;;;;;26.23;4.15;;;5.10;99.90;;;;;;5014726;28;20061;-84
2022/12/30 03:06:31;;;;;;;34.05;3.88;;;5.20;99.90;;;;;;5014573;28;20382;-84
2022/12/30 03:09:30;;;;;;;38.33;5.40;;;5.10;99.90;;;;;;5014564;28;20386;-84
2022/12/30 03:12:16;;;;;;;22.83;3.10;;;5.10;99.90;;;;;;5014908;28;20289;-84
2022/12/30 03:14:53;;;;;;;38.88;5.43;;;5.10;99.90;;;;;;5014446;28;20046;-84
2022/12/30 03:17:26;;;;;;;22.08;3.97;;;5.10;99.90;;;;;;5014445;28;20505;-84
2022/12/30 03:19:56;;;;;;;33.97;5.07;;;5.00;99.90;;;;;;5014463;28;20045;-84
2022/12/30 03:27:58;;;;;;;26.17;3.25;;;5.10;99.90;;;;;;5015343;28;20058;-85
2022/12/30 03:30:25;;;;;;;23.67;3.75;;;5.00;99.90;;;;;;5014485;28;20096;-84
2022/12/30 03:32:51;;;;;;;27.58;4.80;;;5.00;99.90;;;;;;5014007;28;20058;-84
2022/12/30 03:35:18;;;;;;;30.17;4.30;;;5.10;99.90;;;;;;5013810;28;20068;-84
2022/12/30 03:37:49;;;;;;;31.17;6.05;;;5.00;99.90;;;;;;5014198;28;20046;-84
2022/12/30 03:40:31;;;;;;;35.15;5.80;;;5.00;99.90;;;;;;5014017;28;20084;-84
2022/12/30 03:42:57;;;;;;;24.20;4.60;;;5.00;99.90;;;;;;5014032;28;20045;-84
2022/12/30 03:45:23;;;;;;;25.52;4.93;;;5.10;99.90;;;;;;5013993;28;20494;-84
2022/12/30 03:47:49;;;;;;;33.63;4.85;;;4.90;99.90;;;;;;5013933;28;20042;-84
2022/12/30 03:50:14;;;;;;;22.52;3.95;;;5.10;99.90;;;;;;5014997;28;20507;-84
2022/12/30 03:52:40;;;;;;;30.50;4.07;;;5.10;99.90;;;;;;5013792;28;20490;-84
2022/12/30 03:55:06;;;;;;;33.30;5.63;;;5.10;99.90;;;;;;5014040;28;20046;-84
2022/12/30 03:57:32;;;;;;;25.52;4.20;;;5.30;99.90;;;;;;5013716;28;20092;-84
2022/12/30 03:59:59;;;;;;;34.38;5.03;;;5.20;99.90;;;;;;5013561;28;20041;-85
2022/12/30 04:02:24;;;;;;;34.80;4.65;;;5.20;99.90;;;;;;5013757;28;20057;-85
2022/12/30 04:04:51;;;;;;;28.73;3.60;;;5.20;99.90;;;;;;5013532;28;20053;-85
2022/12/30 04:07:17;;;;;;;31.23;5.07;;;5.20;99.90;;;;;;5013759;28;20057;-85
2022/12/30 04:09:42;;;;;;;27.63;4.00;;;5.20;99.90;;;;;;5013499;28;20048;-85
2022/12/30 04:12:08;;;;;;;24.58;4.63;;;5.30;99.90;;;;;;5013272;28;20124;-85
2022/12/30 04:14:34;;;;;;;44.20;6.53;;;5.30;99.90;;;;;;5013240;28;20045;-85
2022/12/30 04:16:59;;;;;;;28.00;4.75;;;5.10;99.90;;;;;;5014688;28;20050;-85
2022/12/30 04:19:25;;;;;;;28.02;3.85;;;5.10;99.90;;;;;;5013317;28;20398;-84
2022/12/30 04:21:50;;;;;;;33.65;5.70;;;5.20;99.90;;;;;;5013218;28;20034;-84
2022/12/30 04:24:17;;;;;;;29.77;4.75;;;5.20;99.90;;;;;;5013274;28;20100;-84
2022/12/30 04:26:43;;;;;;;25.65;7.55;;;5.20;99.90;;;;;;5013194;28;20045;-84
2022/12/30 04:29:09;;;;;;;33.88;5.78;;;5.20;99.90;;;;;;5013104;28;20052;-84
2022/12/30 04:31:34;;;;;;;34.13;6.43;;;5.20;99.90;;;;;;5013133;28;20046;-85
2022/12/30 04:34:00;;;;;;;39.20;6.95;;;5.20;99.90;;;;;;5013850;28;20056;-84
2022/12/30 04:36:27;;;;;;;25.17;6.30;;;5.20;99.90;;;;;;5014071;28;20050;-84
2022/12/30 04:38:52;;;;;;;31.17;6.43;;;5.10;99.90;;;;;;5012993;28;20054;-85
2022/12/30 04:41:21;;;;;;;25.50;5.95;;;5.20;99.90;;;;;;5012903;28;20099;-84
2022/12/30 04:43:48;;;;;;;49.67;6.70;;;5.00;99.90;;;;;;5014058;28;20485;-85
2022/12/30 04:46:13;;;;;;;26.33;5.85;;;5.20;99.90;;;;;;5012874;28;20505;-85
2022/12/30 04:48:39;;;;;;;26.38;6.15;;;5.20;99.90;;;;;;5012884;28;20042;-85
2022/12/30 04:51:05;;;;;;;40.67;10.63;;;5.10;99.90;;;;;;5014149;28;20048;-85
2022/12/30 04:53:31;;;;;;;47.83;8.02;;;5.20;99.90;;;;;;5013066;28;20501;-85
2022/12/30 04:55:57;;;;;;;33.92;7.20;;;5.20;99.90;;;;;;5013038;28;20081;-84
2022/12/30 04:58:24;;;;;;;30.50;8.32;;;5.20;99.90;;;;;;5012584;28;20133;-84
2022/12/30 05:00:52;;;;;;;46.97;9.38;;;5.30;99.90;;;;;;5012679;28;20096;-85
2022/12/30 05:03:17;;;;;;;34.28;9.88;;;5.40;99.90;;;;;;5012628;28;20489;-85
2022/12/30 05:05:43;;;;;;;34.67;10.98;;;5.40;99.90;;;;;;5012847;28;20084;-84
2022/12/30 05:08:09;;;;;;;34.03;9.63;;;5.40;99.90;;;;;;5012566;28;20049;-85
2022/12/30 05:10:37;;;;;;;28.55;8.50;;;5.40;99.90;;;;;;5012779;28;20045;-85
2022/12/30 05:13:03;;;;;;;31.10;9.65;;;5.40;99.90;;;;;;5012652;28;20551;-85
2022/12/30 05:15:28;;;;;;;36.67;10.95;;;5.50;99.90;;;;;;5012602;28;20041;-84
2022/12/30 05:17:54;;;;;;;32.88;9.35;;;5.30;99.90;;;;;;5012734;28;20381;-85
2022/12/30 05:20:20;;;;;;;44.67;10.55;;;5.40;99.90;;;;;;5012842;28;20559;-85
2022/12/30 05:22:45;;;;;;;37.65;13.48;;;5.40;99.90;;;;;;5012722;28;20041;-85
2022/12/30 05:27:56;;;;;;;34.17;10.50;;;5.50;99.90;;;;;;5012447;28;20053;-85
2022/12/30 05:30:23;;;;;;;47.25;12.48;;;5.50;99.90;;;;;;5012368;28;20050;-85
2022/12/30 05:32:48;;;;;;;45.83;12.38;;;5.60;99.90;;;;;;5012391;28;20039;-85
2022/12/30 05:35:14;;;;;;;43.35;12.05;;;5.50;99.90;;;;;;5012097;28;20056;-85
2022/12/30 05:37:40;;;;;;;31.92;10.73;;;5.60;99.90;;;;;;5012294;28;20053;-85
2022/12/30 05:40:06;;;;;;;34.75;11.75;;;5.70;99.90;;;;;;5012169;28;20045;-85
2022/12/30 05:42:32;;;;;;;44.30;12.18;;;5.70;99.90;;;;;;5012227;28;20046;-85
2022/12/30 05:44:59;;;;;;;40.92;11.60;;;5.70;99.90;;;;;;5014600;28;20074;-85
2022/12/30 05:47:25;;;;;;;40.97;12.38;;;5.80;99.90;;;;;;5017366;28;20042;-85
2022/12/30 05:49:51;;;;;;;59.92;14.25;;;5.60;99.90;;;;;;5016473;28;20128;-85
2022/12/30 05:52:17;;;;;;;54.42;13.57;;;5.80;99.90;;;;;;5016357;28;20421;-85
2022/12/30 05:54:43;;;;;;;36.25;13.88;;;5.70;99.90;;;;;;5015870;28;20073;-85
2022/12/30 05:57:09;;;;;;;40.80;13.75;;;5.60;99.90;;;;;;5015913;28;20049;-85
2022/12/30 05:59:34;;;;;;;40.13;14.60;;;5.70;99.90;;;;;;5015879;28;20041;-85
2022/12/30 06:02:00;;;;;;;35.75;11.55;;;5.60;99.90;;;;;;5017267;28;20056;-85
2022/12/30 06:04:26;;;;;;;41.42;13.60;;;5.60;99.90;;;;;;5016157;28;20451;-85
2022/12/30 06:06:52;;;;;;;38.13;11.88;;;5.70;99.90;;;;;;5016050;28;20108;-85
2022/12/30 06:09:18;;;;;;;36.92;13.02;;;5.70;99.90;;;;;;5015543;28;20397;-85
2022/12/30 06:11:43;;;;;;;37.00;12.23;;;5.70;99.90;;;;;;5015627;28;20219;-84
2022/12/30 06:14:10;;;;;;;34.85;11.43;;;5.60;99.90;;;;;;5015593;28;20050;-84
2022/12/30 06:16:36;;;;;;;38.90;11.52;;;5.60;99.90;;;;;;5015885;28;20049;-85
2022/12/30 06:19:02;;;;;;;39.40;12.13;;;5.70;99.90;;;;;;5015601;28;20054;-84
2022/12/30 06:21:27;;;;;;;42.25;12.20;;;5.60;99.90;;;;;;5015542;28;20038;-85
2022/12/30 06:23:53;;;;;;;40.58;13.30;;;5.80;99.90;;;;;;5015617;28;20474;-85
2022/12/30 06:26:19;;;;;;;45.95;11.40;;;5.80;99.90;;;;;;5015611;28;20060;-85
2022/12/30 06:28:44;;;;;;;31.27;12.35;;;5.80;99.90;;;;;;5015184;28;20133;-85
2022/12/30 06:31:11;;;;;;;28.85;12.55;;;5.80;99.90;;;;;;5015642;28;20038;-85
2022/12/30 06:33:37;;;;;;;37.63;13.10;;;5.70;99.90;;;;;;5015331;28;20473;-84
2022/12/30 06:36:03;;;;;;;33.75;12.52;;;5.80;99.90;;;;;;5015017;28;20116;-84
2022/12/30 06:38:28;;;;;;;42.70;13.15;;;5.70;99.90;;;;;;5015355;28;20054;-85
2022/12/30 06:40:54;;;;;;;43.88;14.95;;;5.90;99.90;;;;;;5015172;28;20375;-85
2022/12/30 06:43:19;;;;;;;38.08;14.13;;;5.70;99.90;;;;;;5015124;28;20050;-85
2022/12/30 06:45:45;;;;;;;42.15;12.60;;;5.80;99.90;;;;;;5015300;28;20092;-85
2022/12/30 06:48:11;;;;;;;37.97;13.98;;;5.80;99.90;;;;;;5015103;28;20058;-85
2022/12/30 06:50:36;;;;;;;30.30;11.38;;;5.80;99.90;;;;;;5015355;28;20096;-85
2022/12/30 06:53:03;;;;;;;37.00;11.13;;;5.70;99.90;;;;;;5015057;28;20515;-85
2022/12/30 06:55:29;;;;;;;39.17;11.80;;;5.60;99.90;;;;;;5014403;28;20128;-85
2022/12/30 06:57:54;;;;;;;30.98;8.65;;;5.70;99.90;;;;;;5015059;28;20137;-85
2022/12/30 07:00:20;;;;;;;43.72;12.60;;;5.70;99.90;;;;;;5014844;28;20064;-85
2022/12/30 07:02:46;;;;;;;34.72;9.65;;;5.50;99.90;;;;;;5014801;28;20049;-85
2022/12/30 07:05:12;;;;;;;27.20;10.90;;;5.60;99.90;;;;;;5014725;28;20576;-85
2022/12/30 07:07:37;;;;;;;29.50;9.15;;;5.60;99.90;;;;;;5014748;28;20038;-85
2022/12/30 07:10:03;;;;;;;32.75;9.00;;;5.50;99.90;;;;;;5014590;28;20390;-85
2022/12/30 07:12:29;;;;;;;26.20;11.05;;;5.40;99.90;;;;;;5015653;28;20520;-85
2022/12/30 07:14:55;;;;;;;36.53;10.57;;;5.50;99.90;;;;;;5014800;28;20050;-85
2022/12/30 07:17:20;;;;;;;30.38;10.18;;;5.30;99.90;;;;;;5014543;28;20121;-85
2022/12/30 07:19:46;;;;;;;30.65;9.25;;;5.20;99.90;;;;;;5014469;28;20054;-84
2022/12/30 07:22:13;;;;;;;26.80;9.38;;;5.30;99.90;;;;;;5014594;28;20037;-85
2022/12/30 07:24:38;;;;;;;31.55;8.95;;;5.30;99.90;;;;;;5014254;28;20092;-84
2022/12/30 07:27:04;;;;;;;31.48;9.40;;;5.20;99.90;;;;;;5014088;28;20119;-84
2022/12/30 07:29:30;;;;;;;24.40;8.77;;;5.10;99.90;;;;;;5013669;28;20046;-84
2022/12/30 07:31:56;;;;;;;28.35;9.73;;;5.10;99.90;;;;;;5013901;28;20057;-84
2022/12/30 07:34:21;;;;;;;31.58;10.02;;;4.90;99.90;;;;;;5014020;28;20401;-84
2022/12/30 07:36:47;;;;;;;24.15;8.75;;;5.00;99.90;;;;;;5015493;28;20512;-84
2022/12/30 07:39:12;;;;;;;36.92;8.52;;;4.90;99.90;;;;;;5013914;28;20042;-83
2022/12/30 07:41:38;;;;;;;27.45;8.85;;;4.80;99.90;;;;;;5015159;28;20049;-84
2022/12/30 07:44:04;;;;;;;24.77;8.02;;;4.80;99.90;;;;;;5013797;28;20072;-84
2022/12/30 07:46:29;;;;;;;28.80;9.00;;;4.90;99.90;;;;;;5013720;28;20045;-83
2022/12/30 07:48:55;;;;;;;29.80;8.65;;;4.80;99.90;;;;;;5013623;28;20046;-83
2022/12/30 07:51:21;;;;;;;30.63;8.80;;;4.60;99.90;;;;;;5013649;28;20442;-84
2022/12/30 07:53:46;;;;;;;34.20;8.27;;;4.80;99.90;;;;;;5013919;28;20037;-83
2022/12/30 07:56:13;;;;;;;25.40;8.38;;;4.70;99.90;;;;;;5013597;28;20054;-83
2022/12/30 07:58:39;;;;;;;26.98;8.00;;;4.80;99.90;;;;;;5013604;28;20107;-83
2022/12/30 08:01:13;;;;;;;24.23;8.10;;;4.70;99.90;;;;;;5013445;28;20116;-84
2022/12/30 08:03:40;;;;;;;21.25;6.35;;;4.60;99.90;;;;;;5013697;28;20387;-84
2022/12/30 08:06:11;;;;;;;26.30;7.57;;;4.80;99.90;;;;;;5013420;28;20053;-84
2022/12/30 08:08:37;;;;;;;28.35;8.50;;;4.50;99.90;;;;;;5012732;28;20056;-83
2022/12/30 08:11:04;;;;;;;24.50;6.43;;;4.70;99.90;;;;;;5013334;28;20136;-84
2022/12/30 08:13:32;;;;;;;28.23;6.97;;;4.60;99.90;;;;;;5013472;28;20485;-83
2022/12/30 08:15:58;;;;;;;23.60;7.03;;;4.70;99.90;;;;;;5013598;28;20074;-84
2022/12/30 08:18:26;;;;;;;24.25;6.13;;;4.60;99.90;;;;;;5014709;28;20076;-84
2022/12/30 08:20:52;;;;;;;19.33;4.93;;;4.60;99.90;;;;;;5013504;28;20038;-84
2022/12/30 08:23:17;;;;;;;20.23;5.05;;;4.80;99.90;;;;;;5013246;28;20409;-84
2022/12/30 08:25:43;;;;;;;20.77;5.15;;;4.60;99.90;;;;;;5013104;28;20501;-84
2022/12/30 08:28:09;;;;;;;34.35;7.03;;;4.60;99.90;;;;;;5012942;28;20048;-83
2022/12/30 08:30:37;;;;;;;19.45;5.68;;;4.60;99.90;;;;;;5012977;28;20073;-83
2022/12/30 08:33:02;;;;;;;36.40;8.43;;;4.60;99.90;;;;;;5013350;28;20058;-83
2022/12/30 08:35:29;;;;;;;60.35;15.90;;;4.70;99.90;;;;;;5014234;28;20069;-82
2022/12/30 08:37:54;;;;;;;75.18;19.15;;;4.70;99.90;;;;;;5012880;28;20125;-83
2022/12/30 08:40:20;;;;;;;32.88;11.32;;;4.70;99.90;;;;;;5013155;28;20156;-82
2022/12/30 08:42:45;;;;;;;30.95;11.02;;;4.70;99.90;;;;;;5012919;28;20033;-84
2022/12/30 08:45:11;;;;;;;35.10;8.70;;;4.70;99.90;;;;;;5014007;28;20046;-84
2022/12/30 08:47:37;;;;;;;45.33;11.90;;;4.80;99.90;;;;;;5013805;28;20145;-83
2022/12/30 08:50:03;;;;;;;27.73;9.07;;;4.90;99.90;;;;;;5013974;28;20078;-84
2022/12/30 08:52:29;;;;;;;29.60;9.07;;;4.90;99.90;;;;;;5012910;28;20052;-82
2022/12/30 08:54:55;;;;;;;20.67;6.53;;;4.70;99.90;;;;;;5012646;28;20046;-82
2022/12/30 08:57:21;;;;;;;19.48;5.25;;;4.80;99.90;;;;;;5013060;28;20061;-83
2022/12/30 08:59:47;;;;;;;25.88;6.20;;;4.80;99.90;;;;;;5012488;28;20461;-83
2022/12/30 09:02:14;;;;;;;22.17;5.47;;;4.90;99.90;;;;;;5013103;28;20111;-82
2022/12/30 09:04:40;;;;;;;22.13;5.63;;;5.00;99.90;;;;;;5012514;28;20124;-84
2022/12/30 09:07:06;;;;;;;25.67;6.78;;;4.90;99.90;;;;;;5012824;28;20125;-86
2022/12/30 09:09:32;;;;;;;24.60;6.28;;;4.90;99.90;;;;;;5012394;28;20053;-83
2022/12/30 09:11:57;;;;;;;20.13;6.65;;;5.10;99.90;;;;;;5012956;28;20049;-83
2022/12/30 09:14:23;;;;;;;20.80;5.13;;;5.10;99.90;;;;;;5005524;28;20437;-83
2022/12/30 09:16:49;;;;;;;18.17;4.55;;;5.10;99.90;;;;;;4994241;28;20105;-85
2022/12/30 09:19:15;;;;;;;21.38;5.75;;;5.10;99.90;;;;;;4992660;28;20042;-83
2022/12/30 09:21:41;;;;;;;21.38;5.50;;;5.20;99.90;;;;;;4992633;28;20101;-80
2022/12/30 09:24:07;;;;;;;22.55;5.22;;;5.10;99.90;;;;;;4992768;28;20039;-83
2022/12/30 09:26:33;;;;;;;31.10;8.82;;;5.10;99.90;;;;;;4994083;28;20096;-83
2022/12/30 09:28:58;;;;;;;20.80;5.28;;;5.10;99.90;;;;;;4992339;28;20050;-82
2022/12/30 09:31:25;;;;;;;18.90;5.38;;;5.10;99.90;;;;;;4992798;28;20081;-86
2022/12/30 09:33:50;;;;;;;21.92;6.15;;;5.20;99.90;;;;;;4992717;28;20088;-84
2022/12/30 09:36:17;;;;;;;21.85;5.90;;;5.10;99.90;;;;;;4992276;28;20415;-85
2022/12/30 09:38:43;;;;;;;23.73;4.90;;;5.20;99.90;;;;;;4994805;28;20549;-86
2022/12/30 09:43:14;;;;;;;19.70;5.55;;;5.30;99.90;;;;;;4992916;28;20046;-85
2022/12/30 09:44:38;;;;;;;17.95;4.28;;;5.30;99.90;;;;;;4992262;28;20054;-84
2022/12/30 09:47:22;;;;;;;21.77;5.85;;;5.20;99.90;;;;;;4992506;28;20101;-83
2022/12/30 09:50:29;;;;;;;24.70;4.93;;;5.20;99.90;;;;;;4992424;28;20061;-85
2022/12/30 09:53:19;;;;;;;15.82;4.97;;;5.30;99.90;;;;;;4992196;28;20410;-82
2022/12/30 09:55:58;;;;;;;21.67;5.90;;;5.20;99.90;;;;;;4992599;28;20097;-83
2022/12/30 09:58:28;;;;;;;14.90;5.55;;;5.30;99.90;;;;;;4992132;28;20042;-81
2022/12/30 10:00:54;;;;;;;20.83;4.97;;;5.30;99.90;;;;;;4992497;28;20490;-83
2022/12/30 10:03:24;;;;;;;17.60;5.05;;;5.40;99.90;;;;;;4992249;28;20066;-83
2022/12/30 10:06:10;;;;;;;20.35;6.18;;;5.40;99.90;;;;;;4992328;28;20490;-85
2022/12/30 10:09:11;;;;;;;20.77;5.30;;;5.30;99.90;;;;;;4992057;28;20078;-82
2022/12/30 10:12:01;;;;;;;23.27;5.20;;;5.40;99.90;;;;;;4992355;28;20101;-85
2022/12/30 10:14:52;;;;;;;19.20;5.10;;;5.40;99.90;;;;;;4992103;28;20104;-83
2022/12/30 10:17:29;;;;;;;21.15;4.68;;;5.60;99.90;;;;;;4992400;28;20069;-85
2022/12/30 10:20:01;;;;;;;16.23;5.40;;;5.50;99.90;;;;;;4992288;28;20050;-82
2022/12/30 10:22:40;;;;;;;13.45;4.57;;;5.60;99.90;;;;;;4992229;28;20050;-81
2022/12/30 10:25:23;;;;;;;23.02;5.40;;;5.60;99.90;;;;;;4992116;28;20046;-82
2022/12/30 10:27:51;;;;;;;21.05;6.20;;;5.70;99.90;;;;;;4992102;28;20556;-81
2022/12/30 10:30:20;;;;;;;14.43;4.53;;;5.70;99.90;;;;;;4994082;28;20042;-83
2022/12/30 10:33:01;;;;;;;19.67;4.50;;;5.60;99.90;;;;;;4995667;28;20493;-83
2022/12/30 10:35:31;;;;;;;18.83;4.47;;;5.80;99.90;;;;;;4995297;28;20514;-83
2022/12/30 10:38:08;;;;;;;20.88;4.90;;;5.80;99.90;;;;;;4995597;28;20057;-84
2022/12/30 10:41:08;;;;;;;18.85;4.25;;;5.90;99.90;;;;;;4995654;28;20078;-82
2022/12/30 10:43:52;;;;;;;19.13;4.53;;;6.00;99.90;;;;;;4995250;28;20047;-82
2022/12/30 10:46:44;;;;;;;24.45;5.43;;;5.90;99.90;;;;;;4998466;28;20486;-82
2022/12/30 10:49:45;;;;;;;21.38;5.32;;;6.10;99.90;;;;;;4998844;28;20054;-82
2022/12/30 10:52:12;;;;;;;16.73;4.53;;;6.20;99.90;;;;;;5016713;28;20080;-82
2022/12/30 10:54:38;;;;;;;19.92;4.68;;;6.10;99.90;;;;;;5016145;28;20041;-86
2022/12/30 10:57:04;;;;;;;17.65;4.80;;;6.20;99.90;;;;;;5017425;28;20134;-87
2022/12/30 10:59:31;;;;;;;15.93;4.85;;;6.40;99.90;;;;;;5015640;28;20052;-85
2022/12/30 11:02:21;;;;;;;12.57;3.90;;;6.40;99.90;;;;;;5016807;28;20117;-87
2022/12/30 11:04:47;;;;;;;17.88;4.70;;;6.50;99.90;;;;;;5018305;28;20092;-87
2022/12/30 11:07:15;;;;;;;11.15;3.67;;;6.40;99.90;;;;;;5015454;28;20046;-83
2022/12/30 11:09:43;;;;;;;17.10;4.35;;;6.50;99.90;;;;;;5014314;28;20141;-83
2022/12/30 11:15:20;;;;;;;9.13;3.97;;;6.50;99.90;;;;;;5015771;28;20054;-84
2022/12/30 11:17:55;;;;;;;22.50;4.93;;;6.50;99.90;;;;;;5014450;28;20053;-84
2022/12/30 11:20:32;;;;;;;15.98;4.93;;;6.50;99.90;;;;;;5014423;28;20180;-83
2022/12/30 11:23:02;;;;;;;17.55;4.53;;;6.50;99.90;;;;;;5014408;28;20512;-84
2022/12/30 11:25:29;;;;;;;19.13;4.97;;;6.50;99.90;;;;;;5015340;28;20107;-80
2022/12/30 11:27:59;;;;;;;18.60;4.53;;;6.50;99.90;;;;;;5015414;28;20046;-85
2022/12/30 11:30:34;;;;;;;17.77;5.03;;;6.60;99.90;;;;;;5014668;28;20046;-84
2022/12/30 11:33:03;;;;;;;17.83;4.95;;;6.60;99.90;;;;;;5013653;28;20128;-84
2022/12/30 11:35:41;;;;;;;16.48;4.22;;;6.50;99.90;;;;;;5013252;28;20058;-85
2022/12/30 11:38:34;;;;;;;15.15;3.63;;;6.60;99.90;;;;;;5013635;28;20046;-84
2022/12/30 11:41:17;;;;;;;11.68;4.03;;;6.50;99.90;;;;;;5013754;28;20042;-83
2022/12/30 11:43:49;;;;;;;13.45;3.45;;;6.60;99.90;;;;;;5013278;28;20108;-84
2022/12/30 11:46:18;;;;;;;17.80;4.80;;;6.60;99.90;;;;;;5014018;28;20050;-84
2022/12/30 11:48:51;;;;;;;17.67;4.00;;;6.70;99.90;;;;;;5013846;28;20049;-84
2022/12/30 11:51:25;;;;;;;9.75;3.90;;;6.60;99.90;;;;;;5013597;28;20049;-84
2022/12/30 11:54:21;;;;;;;14.27;3.53;;;6.70;99.90;;;;;;5012986;28;20045;-84
2022/12/30 11:56:59;;;;;;;16.98;5.93;;;6.80;99.90;;;;;;5012209;28;20162;-85
2022/12/30 11:59:35;;;;;;;24.60;7.40;;;6.80;99.90;;;;;;5011706;28;20141;-84
2022/12/30 12:02:31;;;;;;;38.42;12.30;;;6.80;99.90;;;;;;5013447;28;20045;-84
2022/12/30 12:04:57;;;;;;;43.92;13.57;;;6.90;99.90;;;;;;5013352;28;20572;-83
2022/12/30 12:07:36;;;;;;;21.63;6.60;;;6.90;99.90;;;;;;5013450;28;20107;-83
2022/12/30 12:10:19;;;;;;;20.05;5.70;;;6.90;99.90;;;;;;5014834;28;20045;-82
2022/12/30 12:12:53;;;;;;;20.75;5.03;;;6.90;99.90;;;;;;5013290;28;20042;-82
2022/12/30 12:15:32;;;;;;;20.20;5.47;;;7.00;99.90;;;;;;5013400;28;20053;-85
2022/12/30 12:18:13;;;;;;;15.43;4.43;;;7.00;99.90;;;;;;5013478;28;20057;-86
2022/12/30 12:21:00;;;;;;;28.17;8.13;;;7.00;99.90;;;;;;5013262;28;20058;-85
2022/12/30 12:23:46;;;;;;;27.30;7.10;;;7.10;99.90;;;;;;4994171;28;20046;-84
2022/12/30 12:26:41;;;;;;;17.35;5.32;;;7.10;99.90;;;;;;4993291;28;20065;-84
2022/12/30 12:29:13;;;;;;;19.45;6.65;;;7.00;99.90;;;;;;4993577;28;20491;-84
2022/12/30 12:32:08;;;;;;;10.50;3.42;;;7.10;99.90;;;;;;4993743;28;20038;-84
2022/12/30 12:35:02;;;;;;;13.73;4.30;;;7.10;99.90;;;;;;4993511;28;20088;-84
2022/12/30 12:37:37;;;;;;;10.32;3.78;;;7.20;99.90;;;;;;4993430;28;20050;-83
2022/12/30 12:40:17;;;;;;;19.73;3.35;;;7.20;99.90;;;;;;4993418;28;20394;-84
2022/12/30 12:43:03;;;;;;;10.07;3.72;;;7.20;99.90;;;;;;4993546;28;20049;-84
2022/12/30 12:45:28;;;;;;;18.15;4.50;;;7.20;99.90;;;;;;4993437;28;20124;-85
2022/12/30 12:48:40;;;;;;;10.65;3.58;;;7.20;99.90;;;;;;4993196;28;20093;-84
2022/12/30 12:51:18;;;;;;;12.25;3.30;;;7.20;99.90;;;;;;4980307;28;20050;-84
2022/12/30 12:54:05;;;;;;;15.35;3.13;;;7.30;99.90;;;;;;4993085;28;20081;-84
2022/12/30 12:56:40;;;;;;;15.32;3.42;;;7.30;99.90;;;;;;4993169;28;20042;-85
2022/12/30 12:59:24;;;;;;;13.18;3.40;;;7.30;99.90;;;;;;4993161;28;20578;-86
2022/12/30 13:02:04;;;;;;;7.78;2.92;;;7.40;99.90;;;;;;4993465;28;20494;-85
2022/12/30 13:05:35;;;;;;;12.98;3.80;;;7.30;99.90;;;;;;4992986;28;20042;-84
2022/12/30 13:08:34;;;;;;;9.02;3.13;;;7.30;99.90;;;;;;4956405;28;20043;-84
2022/12/30 13:11:32;;;;;;;10.52;3.17;;;7.40;99.90;;;;;;4956524;28;20047;-85
2022/12/30 13:14:14;;;;;;;10.13;3.08;;;7.30;99.90;;;;;;4959798;28;20140;-85
2022/12/30 13:16:46;;;;;;;13.25;2.42;;;7.40;99.90;;;;;;4992908;28;20042;-85
2022/12/30 13:19:17;;;;;;;11.90;3.63;;;7.40;99.90;;;;;;4993135;28;20530;-85
2022/12/30 13:21:46;;;;;;;15.57;3.03;;;7.50;99.90;;;;;;4993234;28;20054;-85
2022/12/30 13:24:32;;;;;;;13.63;3.28;;;7.50;99.90;;;;;;4993861;28;20446;-85
2022/12/30 13:26:58;;;;;;;15.82;2.40;;;7.60;99.90;;;;;;4993032;28;20066;-85
2022/12/30 13:29:35;;;;;;;16.48;2.85;;;7.60;99.90;;;;;;4992649;28;20453;-85
2022/12/30 13:32:06;;;;;;;11.02;2.45;;;7.60;99.90;;;;;;4994123;28;20081;-84
2022/12/30 13:34:59;;;;;;;11.63;4.00;;;7.60;99.90;;;;;;4993964;28;20573;-85
2022/12/30 13:37:38;;;;;;;9.98;4.07;;;7.70;99.90;;;;;;4992871;28;20047;-85
2022/12/30 13:40:14;;;;;;;14.95;4.32;;;7.80;99.90;;;;;;4992965;28;20121;-84
2022/12/30 13:42:51;;;;;;;11.70;4.70;;;7.90;99.90;;;;;;4992935;28;20054;-86
2022/12/30 13:45:21;;;;;;;17.70;4.60;;;7.90;99.90;;;;;;4992826;28;20047;-84
2022/12/30 13:47:47;;;;;;;16.58;4.65;;;8.00;99.90;;;;;;4992562;28;20042;-85
2022/12/30 13:50:26;;;;;;;19.50;3.70;;;8.00;99.90;;;;;;4992703;28;20153;-85
2022/12/30 13:52:55;;;;;;;11.10;3.45;;;8.10;99.90;;;;;;4992980;28;20050;-85
2022/12/30 13:55:23;;;;;;;12.70;3.10;;;8.00;99.90;;;;;;4992698;28;20042;-85
2022/12/30 13:57:58;;;;;;;7.65;2.33;;;8.10;99.90;;;;;;4992366;28;20521;-85
2022/12/30 14:00:35;;;;;;;12.75;2.90;;;8.10;99.90;;;;;;4992829;28;20053;-85